Time;durP1;ratioP1;P1;durP2;ratioP2;P2;SDS_P1;SDS_P2;PMS_P1;PMS_P2;Temp;Humidity;BMP_temperature;BMP_pressure;BME280_temperature;BME280_humidity;BME280_pressure;Samples;Min_cycle;Max_cycle;Signal;HPM_P1;HPM_P2
2022/05/08 00:00:39;;;;;;;7.03;4.47;;;;;;;;;;4780336;29;20035;-87
2022/05/08 00:03:04;;;;;;;6.72;3.83;;;;;;;;;;4779328;29;20034;-83
2022/05/08 00:05:30;;;;;;;7.47;4.10;;;;;;;;;;4767522;29;20524;-83
2022/05/08 00:07:55;;;;;;;7.05;4.13;;;;;;;;;;4767035;30;20032;-82
2022/05/08 00:10:21;;;;;;;6.53;3.78;;;;;;;;;;4779491;29;20517;-81
2022/05/08 00:12:46;;;;;;;6.18;3.95;;;;;;;;;;4765803;29;20062;-83
2022/05/08 00:15:11;;;;;;;7.90;4.10;;;;;;;;;;4764959;29;20038;-83
2022/05/08 00:17:37;;;;;;;6.68;3.90;;;;;;;;;;4758714;29;20024;-80
2022/05/08 00:20:06;;;;;;;6.13;3.83;;;;;;;;;;4779411;29;20035;-83
2022/05/08 00:22:31;;;;;;;7.38;4.45;;;;;;;;;;4763481;29;20047;-83
2022/05/08 00:24:56;;;;;;;6.63;4.10;;;;;;;;;;4780884;29;20043;-81
2022/05/08 00:27:22;;;;;;;6.57;4.00;;;;;;;;;;4782274;29;20066;-83
2022/05/08 00:29:47;;;;;;;5.95;4.40;;;;;;;;;;4764817;29;20043;-85
2022/05/08 00:32:12;;;;;;;5.32;3.78;;;;;;;;;;4768283;29;20126;-83
2022/05/08 00:34:38;;;;;;;5.45;4.00;;;;;;;;;;4781817;29;20059;-82
2022/05/08 00:37:05;;;;;;;7.55;4.30;;;;;;;;;;4774877;29;20034;-83
2022/05/08 00:39:30;;;;;;;6.47;3.80;;;;;;;;;;4766170;29;20066;-84
2022/05/08 00:41:55;;;;;;;7.70;4.60;;;;;;;;;;4776323;29;20026;-87
2022/05/08 00:44:20;;;;;;;6.85;4.40;;;;;;;;;;4766533;29;20449;-83
2022/05/08 00:46:48;;;;;;;7.43;4.35;;;;;;;;;;4781962;29;20039;-83
2022/05/08 00:49:14;;;;;;;6.47;4.13;;;;;;;;;;4771059;29;20078;-82
2022/05/08 00:51:39;;;;;;;6.65;4.28;;;;;;;;;;4767007;29;20039;-83
2022/05/08 00:54:05;;;;;;;5.82;4.03;;;;;;;;;;4785693;29;20076;-83
2022/05/08 00:56:30;;;;;;;6.72;4.35;;;;;;;;;;4781646;29;20043;-85
2022/05/08 00:58:56;;;;;;;6.47;4.28;;;;;;;;;;4783002;29;20095;-83
2022/05/08 01:01:22;;;;;;;6.30;4.68;;;;;;;;;;4767348;29;20066;-83
2022/05/08 01:03:48;;;;;;;6.63;4.25;;;;;;;;;;4784876;29;20046;-83
2022/05/08 01:06:15;;;;;;;7.72;5.10;;;;;;;;;;4783004;29;20027;-81
2022/05/08 01:08:46;;;;;;;9.70;4.60;;;;;;;;;;4769755;29;20035;-87
2022/05/08 01:11:11;;;;;;;6.28;4.60;;;;;;;;;;4785697;29;20039;-83
2022/05/08 01:13:41;;;;;;;7.35;4.07;;;;;;;;;;4784385;29;20039;-82
2022/05/08 01:16:18;;;;;;;8.38;4.85;;;;;;;;;;4761208;29;20391;-83
2022/05/08 01:18:45;;;;;;;7.05;4.78;;;;;;;;;;4770173;29;20039;-83
2022/05/08 01:21:14;;;;;;;9.57;4.68;;;;;;;;;;4778909;29;20031;-81
2022/05/08 01:23:40;;;;;;;8.07;4.72;;;;;;;;;;4782479;29;20035;-83
2022/05/08 01:26:06;;;;;;;7.93;4.60;;;;;;;;;;4780665;29;20043;-87
2022/05/08 01:28:32;;;;;;;6.93;4.30;;;;;;;;;;4767693;29;20050;-86
2022/05/08 01:30:57;;;;;;;7.00;4.72;;;;;;;;;;4780670;29;20059;-83
2022/05/08 01:33:23;;;;;;;7.78;4.80;;;;;;;;;;4765723;29;20114;-83
2022/05/08 01:35:49;;;;;;;6.95;4.38;;;;;;;;;;4768358;29;20039;-83
2022/05/08 01:38:16;;;;;;;8.63;4.40;;;;;;;;;;4777293;29;20043;-86
2022/05/08 01:40:45;;;;;;;8.52;4.85;;;;;;;;;;4782520;29;20121;-82
2022/05/08 01:43:11;;;;;;;6.65;4.38;;;;;;;;;;4765735;29;20042;-83
2022/05/08 01:45:38;;;;;;;7.75;4.70;;;;;;;;;;4765715;29;20038;-83
2022/05/08 01:48:22;;;;;;;7.63;4.88;;;;;;;;;;4769444;30;20036;-82
2022/05/08 01:50:52;;;;;;;6.68;4.43;;;;;;;;;;4765756;29;20065;-82
2022/05/08 01:53:19;;;;;;;10.05;4.20;;;;;;;;;;4783702;29;20031;-87
2022/05/08 01:55:47;;;;;;;10.02;4.32;;;;;;;;;;4781293;29;20423;-80
2022/05/08 01:58:12;;;;;;;8.88;4.15;;;;;;;;;;4782158;29;20086;-82
2022/05/08 02:00:37;;;;;;;8.68;4.25;;;;;;;;;;4764775;29;20058;-82
2022/05/08 02:03:04;;;;;;;8.27;3.90;;;;;;;;;;4767201;30;20138;-82
2022/05/08 02:05:31;;;;;;;6.85;3.72;;;;;;;;;;4767319;29;20520;-86
2022/05/08 02:07:57;;;;;;;7.45;3.53;;;;;;;;;;4785649;29;20113;-86
2022/05/08 02:10:23;;;;;;;7.65;3.30;;;;;;;;;;4784353;29;20051;-87
2022/05/08 02:12:49;;;;;;;8.75;3.90;;;;;;;;;;4780738;29;20507;-83
2022/05/08 02:15:15;;;;;;;10.40;3.65;;;;;;;;;;4779800;29;20092;-84
2022/05/08 02:17:40;;;;;;;9.02;3.25;;;;;;;;;;4784811;29;20412;-82
2022/05/08 02:20:07;;;;;;;7.50;3.15;;;;;;;;;;4784633;29;20054;-84
2022/05/08 02:22:34;;;;;;;8.55;3.45;;;;;;;;;;4784908;29;20031;-86
2022/05/08 02:24:59;;;;;;;10.43;4.03;;;;;;;;;;4763612;29;20035;-83
2022/05/08 02:27:25;;;;;;;9.57;3.40;;;;;;;;;;4764282;29;20039;-80
2022/05/08 02:29:51;;;;;;;8.50;3.22;;;;;;;;;;4767463;30;20031;-82
2022/05/08 02:32:18;;;;;;;7.80;2.85;;;;;;;;;;4776746;29;20135;-80
2022/05/08 02:34:43;;;;;;;9.25;3.28;;;;;;;;;;4773888;29;20991;-82
2022/05/08 02:37:09;;;;;;;6.57;2.88;;;;;;;;;;4780582;29;20096;-84
2022/05/08 02:39:34;;;;;;;8.82;2.88;;;;;;;;;;4766107;29;20079;-80
2022/05/08 02:41:59;;;;;;;7.88;2.85;;;;;;;;;;4779015;29;20027;-80
2022/05/08 02:44:25;;;;;;;10.27;3.13;;;;;;;;;;4778794;29;20030;-81
2022/05/08 02:46:50;;;;;;;6.38;2.75;;;;;;;;;;4779515;29;20039;-83
2022/05/08 02:49:16;;;;;;;7.85;2.85;;;;;;;;;;4761530;29;20410;-83
2022/05/08 02:51:41;;;;;;;7.93;3.00;;;;;;;;;;4761617;29;20069;-84
2022/05/08 02:54:06;;;;;;;9.93;2.92;;;;;;;;;;4768731;30;20373;-81
2022/05/08 02:59:16;;;;;;;11.30;3.30;;;;;;;;;;4779641;29;20125;-82
2022/05/08 03:01:41;;;;;;;7.03;2.70;;;;;;;;;;4779640;29;20039;-83
2022/05/08 03:04:07;;;;;;;7.25;2.78;;;;;;;;;;4779283;29;20055;-86
2022/05/08 03:06:32;;;;;;;9.38;2.72;;;;;;;;;;4783589;29;20039;-86
2022/05/08 03:08:58;;;;;;;8.82;3.38;;;;;;;;;;4766044;29;20116;-80
2022/05/08 03:11:26;;;;;;;11.45;3.10;;;;;;;;;;4780678;29;20038;-81
2022/05/08 03:13:53;;;;;;;9.18;2.90;;;;;;;;;;4780986;29;20118;-80
2022/05/08 03:16:19;;;;;;;8.65;2.63;;;;;;;;;;4777949;29;20035;-82
2022/05/08 03:18:45;;;;;;;11.18;2.50;;;;;;;;;;4762246;29;20031;-81
2022/05/08 03:21:12;;;;;;;9.80;3.50;;;;;;;;;;4765199;29;20031;-84
2022/05/08 03:23:43;;;;;;;6.70;2.17;;;;;;;;;;4755967;30;20031;-82
2022/05/08 03:26:09;;;;;;;7.00;2.10;;;;;;;;;;4783086;29;20027;-83
2022/05/08 03:28:38;;;;;;;8.95;2.50;;;;;;;;;;4763111;30;20039;-82
2022/05/08 03:31:04;;;;;;;9.88;2.50;;;;;;;;;;4782699;29;20038;-83
2022/05/08 03:33:30;;;;;;;7.43;2.63;;;;;;;;;;4781750;29;20042;-83
2022/05/08 03:35:56;;;;;;;11.88;2.45;;;;;;;;;;4768560;29;20027;-83
2022/05/08 03:38:21;;;;;;;10.95;2.70;;;;;;;;;;4776471;29;20038;-80
2022/05/08 03:40:47;;;;;;;9.55;2.45;;;;;;;;;;4781816;29;20410;-84
2022/05/08 03:43:12;;;;;;;8.95;2.60;;;;;;;;;;4764897;29;20029;-82
2022/05/08 03:45:38;;;;;;;6.38;2.20;;;;;;;;;;4780769;29;20170;-84
2022/05/08 03:48:04;;;;;;;9.45;2.20;;;;;;;;;;4784464;29;20087;-83
2022/05/08 03:50:30;;;;;;;8.95;2.78;;;;;;;;;;4781873;29;20058;-80
2022/05/08 03:52:57;;;;;;;11.23;2.33;;;;;;;;;;4776915;29;20482;-85
2022/05/08 03:55:22;;;;;;;8.80;2.20;;;;;;;;;;4782623;29;20031;-85
2022/05/08 03:57:47;;;;;;;7.75;2.22;;;;;;;;;;4779189;29;20497;-82
2022/05/08 04:00:14;;;;;;;7.70;2.03;;;;;;;;;;4781219;29;20027;-80
2022/05/08 04:02:40;;;;;;;11.43;3.05;;;;;;;;;;4764606;29;20066;-82
2022/05/08 04:05:06;;;;;;;14.80;3.50;;;;;;;;;;4761883;29;20096;-80
2022/05/08 04:07:32;;;;;;;10.25;2.30;;;;;;;;;;4768524;29;20081;-82
2022/05/08 04:09:58;;;;;;;7.68;2.30;;;;;;;;;;4780266;29;20114;-86
2022/05/08 04:12:23;;;;;;;10.13;2.42;;;;;;;;;;4777936;29;20038;-87
2022/05/08 04:14:49;;;;;;;8.77;2.13;;;;;;;;;;4781493;29;20039;-82
2022/05/08 04:17:14;;;;;;;7.30;2.10;;;;;;;;;;4780447;29;20040;-86
2022/05/08 04:19:40;;;;;;;7.53;2.42;;;;;;;;;;4776049;29;20050;-83
2022/05/08 04:24:49;;;;;;;8.23;2.17;;;;;;;;;;4777894;29;20038;-83
2022/05/08 04:27:15;;;;;;;10.38;2.38;;;;;;;;;;4775876;29;20043;-86
2022/05/08 04:29:40;;;;;;;10.70;2.30;;;;;;;;;;4781326;29;20035;-83
2022/05/08 04:32:06;;;;;;;10.90;2.72;;;;;;;;;;4761110;29;20228;-82
2022/05/08 04:34:31;;;;;;;9.73;2.58;;;;;;;;;;4765672;29;20589;-85
2022/05/08 04:36:56;;;;;;;14.93;3.53;;;;;;;;;;4775775;29;20031;-82
2022/05/08 04:39:22;;;;;;;6.78;2.25;;;;;;;;;;4778275;29;20047;-83
2022/05/08 04:41:47;;;;;;;7.13;2.15;;;;;;;;;;4777145;29;20043;-82
2022/05/08 04:44:12;;;;;;;8.63;2.05;;;;;;;;;;4784869;29;20062;-81
2022/05/08 04:46:38;;;;;;;10.02;2.30;;;;;;;;;;4780731;29;20417;-81
2022/05/08 04:49:03;;;;;;;6.40;2.03;;;;;;;;;;4781673;29;20118;-86
2022/05/08 04:51:29;;;;;;;6.50;2.20;;;;;;;;;;4779149;29;20122;-83
2022/05/08 04:53:54;;;;;;;11.57;2.45;;;;;;;;;;4761960;29;20039;-86
2022/05/08 04:56:19;;;;;;;6.30;1.98;;;;;;;;;;4781121;29;20559;-83
2022/05/08 04:58:45;;;;;;;9.00;2.30;;;;;;;;;;4779227;29;20375;-83
2022/05/08 05:01:10;;;;;;;6.72;1.88;;;;;;;;;;4779116;29;20397;-86
2022/05/08 05:03:36;;;;;;;8.30;2.38;;;;;;;;;;4776053;29;20039;-85
2022/05/08 05:06:01;;;;;;;9.32;2.35;;;;;;;;;;4777945;29;20436;-82
2022/05/08 05:08:27;;;;;;;8.20;2.10;;;;;;;;;;4780660;29;20027;-81
2022/05/08 05:10:52;;;;;;;8.32;2.30;;;;;;;;;;4781482;29;20031;-82
2022/05/08 05:13:17;;;;;;;10.90;2.85;;;;;;;;;;4762649;29;20371;-85
2022/05/08 05:15:43;;;;;;;9.32;2.20;;;;;;;;;;4778101;29;20027;-86
2022/05/08 05:18:08;;;;;;;11.00;2.45;;;;;;;;;;4781490;29;20070;-82
2022/05/08 05:20:39;;;;;;;9.13;2.33;;;;;;;;;;4778251;29;20042;-82
2022/05/08 05:23:05;;;;;;;9.43;2.30;;;;;;;;;;4775509;29;20107;-81
2022/05/08 05:25:30;;;;;;;8.65;2.42;;;;;;;;;;4780616;29;20118;-82
2022/05/08 05:27:56;;;;;;;7.47;2.00;;;;;;;;;;4780380;29;20067;-82
2022/05/08 05:30:21;;;;;;;8.50;2.13;;;;;;;;;;4779958;29;21959;-82
2022/05/08 05:32:47;;;;;;;10.13;2.20;;;;;;;;;;4769369;30;20066;-82
2022/05/08 05:35:13;;;;;;;9.27;2.28;;;;;;;;;;4780941;29;20486;-83
2022/05/08 05:37:39;;;;;;;7.57;2.28;;;;;;;;;;4780651;29;20036;-83
2022/05/08 05:40:06;;;;;;;11.50;2.50;;;;;;;;;;4783262;29;20608;-81
2022/05/08 05:42:32;;;;;;;9.02;2.45;;;;;;;;;;4783580;29;20039;-85
2022/05/08 05:44:57;;;;;;;9.77;2.17;;;;;;;;;;4784419;29;20039;-85
2022/05/08 05:50:08;;;;;;;9.95;2.30;;;;;;;;;;4782547;29;20054;-84
2022/05/08 05:52:36;;;;;;;9.27;1.80;;;;;;;;;;4781948;29;20031;-80
2022/05/08 05:55:06;;;;;;;11.00;2.28;;;;;;;;;;4775466;29;20041;-81
2022/05/08 05:57:35;;;;;;;9.20;2.40;;;;;;;;;;4784824;29;20039;-84
2022/05/08 06:00:01;;;;;;;8.27;2.33;;;;;;;;;;4781494;29;20037;-83
2022/05/08 06:02:27;;;;;;;14.45;3.45;;;;;;;;;;4780222;29;20522;-83
2022/05/08 06:04:52;;;;;;;11.63;3.15;;;;;;;;;;4782205;29;20074;-83
2022/05/08 06:07:17;;;;;;;9.27;2.25;;;;;;;;;;4784408;29;20037;-84
2022/05/08 06:09:43;;;;;;;8.50;2.58;;;;;;;;;;4762952;29;20410;-82
2022/05/08 06:12:09;;;;;;;13.50;2.80;;;;;;;;;;4767980;29;20492;-86
2022/05/08 06:14:35;;;;;;;9.70;2.45;;;;;;;;;;4769309;29;20027;-84
2022/05/08 06:17:01;;;;;;;9.00;2.58;;;;;;;;;;4766156;29;20031;-82
2022/05/08 06:19:26;;;;;;;8.82;2.67;;;;;;;;;;4783582;29;20042;-83
2022/05/08 06:21:52;;;;;;;11.20;2.50;;;;;;;;;;4785122;29;20165;-81
2022/05/08 06:24:17;;;;;;;10.82;2.03;;;;;;;;;;4779282;29;20118;-83
2022/05/08 06:26:43;;;;;;;9.18;2.70;;;;;;;;;;4778373;29;20035;-84
2022/05/08 06:29:08;;;;;;;8.95;2.25;;;;;;;;;;4780971;29;20042;-86
2022/05/08 06:31:33;;;;;;;8.07;2.20;;;;;;;;;;4780610;29;20035;-87
2022/05/08 06:33:59;;;;;;;10.20;2.30;;;;;;;;;;4766260;30;20023;-81
2022/05/08 06:36:26;;;;;;;7.47;2.20;;;;;;;;;;4779881;29;20040;-81
2022/05/08 06:38:52;;;;;;;12.93;3.13;;;;;;;;;;4766049;29;20035;-81
2022/05/08 06:41:18;;;;;;;8.30;2.38;;;;;;;;;;4758796;30;20055;-82
2022/05/08 06:43:44;;;;;;;7.65;2.50;;;;;;;;;;4745861;30;21693;-82
2022/05/08 06:46:10;;;;;;;7.95;1.95;;;;;;;;;;4763316;30;20036;-84
2022/05/08 06:48:36;;;;;;;8.18;2.45;;;;;;;;;;4760159;30;20040;-83
2022/05/08 06:51:02;;;;;;;10.27;2.42;;;;;;;;;;4749474;30;20035;-83
2022/05/08 06:53:28;;;;;;;12.63;2.72;;;;;;;;;;4762674;30;20040;-85
2022/05/08 06:55:53;;;;;;;8.57;2.08;;;;;;;;;;4748167;30;20027;-80
2022/05/08 06:58:22;;;;;;;7.30;2.00;;;;;;;;;;4766348;30;20052;-85
2022/05/08 07:03:32;;;;;;;10.95;2.58;;;;;;;;;;4765891;30;20124;-84
2022/05/08 07:05:57;;;;;;;9.98;2.20;;;;;;;;;;4744383;30;20039;-80
2022/05/08 07:08:23;;;;;;;6.28;2.15;;;;;;;;;;4765520;30;20036;-84
2022/05/08 07:10:49;;;;;;;11.05;2.42;;;;;;;;;;4747390;30;20050;-81
2022/05/08 07:13:15;;;;;;;10.73;2.70;;;;;;;;;;4743971;30;20040;-84
2022/05/08 07:15:41;;;;;;;7.75;2.33;;;;;;;;;;4748183;30;20444;-83
2022/05/08 07:18:06;;;;;;;8.77;2.60;;;;;;;;;;4763428;30;20067;-86
2022/05/08 07:20:32;;;;;;;7.85;2.72;;;;;;;;;;4765970;30;20174;-81
2022/05/08 07:22:58;;;;;;;6.72;2.13;;;;;;;;;;4766484;30;20035;-81
2022/05/08 07:25:23;;;;;;;9.38;2.17;;;;;;;;;;4745079;30;20032;-81
2022/05/08 07:27:49;;;;;;;9.60;2.45;;;;;;;;;;4764642;30;20115;-83
2022/05/08 07:30:14;;;;;;;8.00;2.17;;;;;;;;;;4761864;30;20039;-82
2022/05/08 07:32:39;;;;;;;9.68;2.47;;;;;;;;;;4750004;30;20383;-83
2022/05/08 07:37:49;;;;;;;7.40;2.08;;;;;;;;;;4762051;30;20084;-81
2022/05/08 07:40:15;;;;;;;13.23;2.42;;;;;;;;;;4770390;29;20063;-85
2022/05/08 07:42:40;;;;;;;7.35;2.10;;;;;;;;;;4767164;29;20038;-82
2022/05/08 07:45:06;;;;;;;11.10;2.40;;;;;;;;;;4783680;29;20031;-84
2022/05/08 07:47:35;;;;;;;10.27;2.65;;;;;;;;;;4771640;29;20127;-82
2022/05/08 07:50:00;;;;;;;7.53;2.38;;;;;;;;;;4779440;29;20095;-81
2022/05/08 07:52:27;;;;;;;9.18;2.30;;;;;;;;;;4778619;29;20038;-87
2022/05/08 07:54:52;;;;;;;9.45;3.30;;;;;;;;;;4783789;29;20106;-82
2022/05/08 07:57:17;;;;;;;7.90;2.67;;;;;;;;;;4768189;29;20138;-84
2022/05/08 07:59:43;;;;;;;11.25;2.38;;;;;;;;;;4778231;29;20666;-81
2022/05/08 08:02:08;;;;;;;7.65;2.10;;;;;;;;;;4784378;29;20027;-84
2022/05/08 08:04:36;;;;;;;9.32;2.42;;;;;;;;;;4767496;29;20094;-83
2022/05/08 08:07:02;;;;;;;10.27;2.03;;;;;;;;;;4782141;29;20058;-82
2022/05/08 08:09:28;;;;;;;11.38;2.10;;;;;;;;;;4765420;29;20034;-85
2022/05/08 08:11:53;;;;;;;8.48;2.33;;;;;;;;;;4778157;29;20035;-85
2022/05/08 08:14:20;;;;;;;7.07;1.85;;;;;;;;;;4781692;29;20043;-81
2022/05/08 08:16:45;;;;;;;10.35;2.20;;;;;;;;;;4781106;29;20540;-81
2022/05/08 08:19:11;;;;;;;6.25;1.67;;;;;;;;;;4782618;29;20031;-83
2022/05/08 08:21:36;;;;;;;6.72;2.10;;;;;;;;;;4779909;29;20043;-81
2022/05/08 08:24:02;;;;;;;7.07;1.90;;;;;;;;;;4780959;29;20035;-82
2022/05/08 08:26:27;;;;;;;8.20;2.00;;;;;;;;;;4765792;29;20104;-81
2022/05/08 08:28:52;;;;;;;8.57;1.90;;;;;;;;;;4779703;29;20046;-87
2022/05/08 08:31:18;;;;;;;6.55;2.25;;;;;;;;;;4765644;29;20124;-82
2022/05/08 08:33:44;;;;;;;11.25;2.45;;;;;;;;;;4777049;29;20043;-84
2022/05/08 08:36:13;;;;;;;9.13;2.15;;;;;;;;;;4762331;29;20486;-85
2022/05/08 08:38:39;;;;;;;6.07;1.63;;;;;;;;;;4761144;29;20037;-84
2022/05/08 08:41:06;;;;;;;7.53;2.05;;;;;;;;;;4751631;30;20052;-83
2022/05/08 08:47:42;;;;;;;5.13;1.80;;;;;;;;;;4746230;30;20051;-81
2022/05/08 08:49:27;;;;;;;7.40;1.95;;;;;;;;;;4764264;30;20039;-82
2022/05/08 08:51:53;;;;;;;6.15;1.77;;;;;;;;;;4766244;30;20491;-84
2022/05/08 08:54:20;;;;;;;5.45;1.85;;;;;;;;;;4750131;30;20039;-82
2022/05/08 08:56:46;;;;;;;9.00;2.03;;;;;;;;;;4768592;30;20028;-81
2022/05/08 08:59:11;;;;;;;8.77;2.08;;;;;;;;;;4763165;30;20063;-81
2022/05/08 09:01:41;;;;;;;8.90;2.50;;;;;;;;;;4745020;30;20074;-81
2022/05/08 09:04:11;;;;;;;10.75;2.33;;;;;;;;;;4747731;30;20492;-81
2022/05/08 09:06:43;;;;;;;5.90;1.95;;;;;;;;;;4767242;30;20040;-84
2022/05/08 09:09:26;;;;;;;11.10;2.17;;;;;;;;;;4765716;30;20145;-83
2022/05/08 09:11:55;;;;;;;7.97;2.10;;;;;;;;;;4748293;30;20039;-82
2022/05/08 09:14:30;;;;;;;5.78;2.00;;;;;;;;;;4760078;30;20075;-86
2022/05/08 09:16:56;;;;;;;5.68;1.98;;;;;;;;;;4766207;30;20032;-81
2022/05/08 09:19:37;;;;;;;7.43;2.30;;;;;;;;;;4765559;30;20039;-84
2022/05/08 09:22:07;;;;;;;7.53;2.08;;;;;;;;;;4749959;30;20041;-82
2022/05/08 09:24:33;;;;;;;6.57;2.00;;;;;;;;;;4750678;30;20031;-83
2022/05/08 09:27:12;;;;;;;7.53;2.10;;;;;;;;;;4750009;30;20032;-83
2022/05/08 09:29:38;;;;;;;5.88;2.03;;;;;;;;;;4768706;30;20040;-82
2022/05/08 09:32:04;;;;;;;6.80;2.00;;;;;;;;;;4768204;30;20050;-81
2022/05/08 09:34:29;;;;;;;9.02;1.80;;;;;;;;;;4766430;30;20040;-84
2022/05/08 09:37:08;;;;;;;6.75;1.90;;;;;;;;;;4750812;30;20026;-81
2022/05/08 09:39:33;;;;;;;3.95;1.50;;;;;;;;;;4770371;30;20117;-80
2022/05/08 09:41:58;;;;;;;8.25;2.17;;;;;;;;;;4769800;29;20429;-81
2022/05/08 09:44:24;;;;;;;4.97;1.65;;;;;;;;;;4769529;29;20035;-82
2022/05/08 09:46:49;;;;;;;5.93;1.80;;;;;;;;;;4771514;29;20085;-82
2022/05/08 09:49:20;;;;;;;8.05;2.00;;;;;;;;;;4769274;29;20195;-81
2022/05/08 09:51:46;;;;;;;8.25;2.33;;;;;;;;;;4769801;29;20043;-81
2022/05/08 09:54:13;;;;;;;8.32;2.10;;;;;;;;;;4766490;29;20218;-81
2022/05/08 09:56:39;;;;;;;7.97;1.92;;;;;;;;;;4780307;29;20038;-82
2022/05/08 09:59:12;;;;;;;6.70;2.25;;;;;;;;;;4770503;29;20486;-84
2022/05/08 10:01:41;;;;;;;6.82;2.03;;;;;;;;;;4786808;29;20039;-81
2022/05/08 10:04:06;;;;;;;7.07;2.10;;;;;;;;;;4766075;29;20576;-81
2022/05/08 10:06:35;;;;;;;4.80;1.80;;;;;;;;;;4783031;29;20095;-82
2022/05/08 10:14:30;;;;;;;4.18;1.70;;;;;;;;;;4782566;29;20116;-82
2022/05/08 10:17:09;;;;;;;6.75;1.90;;;;;;;;;;4782870;29;20032;-86
2022/05/08 10:19:34;;;;;;;7.28;2.00;;;;;;;;;;4783190;29;20129;-82
2022/05/08 10:22:02;;;;;;;6.30;2.13;;;;;;;;;;4782529;29;20123;-81
2022/05/08 10:24:57;;;;;;;6.53;1.80;;;;;;;;;;4769067;29;20294;-85
2022/05/08 10:27:25;;;;;;;4.95;1.75;;;;;;;;;;4771453;29;20036;-82
2022/05/08 10:29:50;;;;;;;5.20;1.67;;;;;;;;;;4781035;29;20039;-82
2022/05/08 10:32:34;;;;;;;5.70;1.83;;;;;;;;;;4780894;29;20050;-83
2022/05/08 10:35:21;;;;;;;4.20;1.60;;;;;;;;;;4766542;30;20748;-81
2022/05/08 10:37:51;;;;;;;6.68;1.80;;;;;;;;;;4765203;29;20042;-83
2022/05/08 10:40:23;;;;;;;7.20;2.20;;;;;;;;;;4762865;30;20426;-85
2022/05/08 10:42:56;;;;;;;5.43;1.67;;;;;;;;;;4749128;30;20092;-82
2022/05/08 10:45:33;;;;;;;6.22;1.75;;;;;;;;;;4764104;30;20031;-83
2022/05/08 10:48:15;;;;;;;7.07;2.25;;;;;;;;;;4765634;30;20036;-82
2022/05/08 10:50:49;;;;;;;6.45;1.95;;;;;;;;;;4763568;30;20142;-81
2022/05/08 10:53:26;;;;;;;6.35;2.13;;;;;;;;;;4761990;30;20409;-82
2022/05/08 10:55:58;;;;;;;6.25;2.05;;;;;;;;;;4763244;30;20030;-84
2022/05/08 10:58:23;;;;;;;6.05;2.33;;;;;;;;;;4766561;30;20042;-83
2022/05/08 11:00:48;;;;;;;6.10;1.70;;;;;;;;;;4764039;30;20036;-82
2022/05/08 11:03:21;;;;;;;4.85;1.73;;;;;;;;;;4749204;30;20095;-81
2022/05/08 11:05:48;;;;;;;4.65;1.70;;;;;;;;;;4748967;30;20067;-81
2022/05/08 11:08:39;;;;;;;9.32;2.30;;;;;;;;;;4748295;30;20035;-81
2022/05/08 11:11:13;;;;;;;6.07;2.10;;;;;;;;;;4763296;30;20467;-82
2022/05/08 11:13:47;;;;;;;5.47;1.88;;;;;;;;;;4764380;30;20055;-83
2022/05/08 11:36:04;;;;;;;8.98;2.00;;;;;;;;;;4826485;29;20118;-85
2022/05/08 11:37:20;;;;;;;6.53;1.88;;;;;;;;;;4843694;29;20035;-82
2022/05/08 11:39:46;;;;;;;6.63;1.70;;;;;;;;;;4839914;29;20037;-83
2022/05/08 11:42:11;;;;;;;6.93;1.98;;;;;;;;;;4829924;29;20456;-83
2022/05/08 11:44:36;;;;;;;7.63;2.17;;;;;;;;;;4829659;29;20427;-84
2022/05/08 11:47:12;;;;;;;6.10;2.15;;;;;;;;;;4839214;29;20072;-82
2022/05/08 11:49:44;;;;;;;7.53;1.98;;;;;;;;;;4834204;29;20064;-82
2022/05/08 11:52:22;;;;;;;4.30;1.60;;;;;;;;;;4828310;29;20415;-82
2022/05/08 11:55:19;;;;;;;5.53;1.73;;;;;;;;;;4825296;29;20419;-83
2022/05/08 11:57:45;;;;;;;6.38;1.85;;;;;;;;;;4830223;29;20036;-82
2022/05/08 12:00:15;;;;;;;5.15;1.65;;;;;;;;;;4829345;29;20132;-82
2022/05/08 12:02:47;;;;;;;4.40;1.67;;;;;;;;;;4826386;29;20037;-84
2022/05/08 12:05:23;;;;;;;5.67;1.80;;;;;;;;;;4827065;29;20410;-82
2022/05/08 12:07:50;;;;;;;7.32;1.83;;;;;;;;;;4841278;29;20931;-83
2022/05/08 12:10:16;;;;;;;4.95;1.90;;;;;;;;;;4842534;29;20745;-81
2022/05/08 12:12:42;;;;;;;7.97;1.95;;;;;;;;;;4830418;29;20030;-83
2022/05/08 12:15:11;;;;;;;6.70;1.85;;;;;;;;;;4830312;29;20029;-84
2022/05/08 12:17:39;;;;;;;4.53;1.75;;;;;;;;;;4826459;29;20068;-82
2022/05/08 12:20:34;;;;;;;3.42;1.55;;;;;;;;;;4828648;29;20555;-83
2022/05/08 12:23:03;;;;;;;7.75;1.92;;;;;;;;;;4831670;29;20642;-84
2022/05/08 12:25:29;;;;;;;5.57;1.98;;;;;;;;;;4835616;29;20029;-81
2022/05/08 12:27:55;;;;;;;6.93;1.92;;;;;;;;;;4827513;29;20459;-81
2022/05/08 12:30:20;;;;;;;3.40;1.60;;;;;;;;;;4827069;29;20140;-82
2022/05/08 12:32:49;;;;;;;8.77;1.92;;;;;;;;;;4832827;29;20033;-81
2022/05/08 12:35:19;;;;;;;6.00;1.70;;;;;;;;;;4843417;29;20045;-82
2022/05/08 12:37:52;;;;;;;4.28;1.50;;;;;;;;;;4829494;29;20665;-85
2022/05/08 12:40:20;;;;;;;4.85;1.70;;;;;;;;;;4847400;29;20041;-83
2022/05/08 12:42:52;;;;;;;4.47;1.70;;;;;;;;;;4828293;29;20048;-85
2022/05/08 12:45:17;;;;;;;8.20;2.17;;;;;;;;;;4854161;29;20030;-81
2022/05/08 12:47:53;;;;;;;5.40;1.50;;;;;;;;;;4854551;29;20034;-83
2022/05/08 12:50:27;;;;;;;4.07;1.45;;;;;;;;;;4857775;29;20036;-81
2022/05/08 12:52:56;;;;;;;4.10;1.92;;;;;;;;;;4855250;29;20037;-85
2022/05/08 12:55:21;;;;;;;3.30;1.40;;;;;;;;;;4857257;29;20111;-80
2022/05/08 13:00:31;;;;;;;7.32;1.75;;;;;;;;;;4858543;29;20061;-80
2022/05/08 13:02:57;;;;;;;3.40;1.40;;;;;;;;;;4854780;29;20056;-79
2022/05/08 13:05:22;;;;;;;41.65;3.88;;;;;;;;;;4846044;29;20029;-81
2022/05/08 13:07:47;;;;;;;38.50;4.03;;;;;;;;;;4854180;29;20037;-77
2022/05/08 13:10:13;;;;;;;7.45;1.63;;;;;;;;;;4841554;29;20037;-77
2022/05/08 13:12:39;;;;;;;5.82;1.70;;;;;;;;;;4858644;29;20539;-82
2022/05/08 13:15:05;;;;;;;7.20;1.45;;;;;;;;;;4844899;29;20082;-82
2022/05/08 13:17:30;;;;;;;3.58;1.50;;;;;;;;;;4841372;29;20029;-78
2022/05/08 13:19:58;;;;;;;5.22;1.70;;;;;;;;;;4854560;29;20033;-83
2022/05/08 13:22:24;;;;;;;4.07;1.45;;;;;;;;;;4851942;29;20048;-79
2022/05/08 13:24:49;;;;;;;3.22;1.30;;;;;;;;;;4854871;29;20483;-79
2022/05/08 13:27:14;;;;;;;10.68;1.45;;;;;;;;;;4856171;29;20033;-84
2022/05/08 13:29:40;;;;;;;4.38;1.60;;;;;;;;;;4836304;29;20053;-81
2022/05/08 13:32:05;;;;;;;4.53;1.30;;;;;;;;;;4834895;29;20041;-80
2022/05/08 13:34:31;;;;;;;4.07;1.20;;;;;;;;;;4835211;29;20427;-78
2022/05/08 13:36:57;;;;;;;4.15;1.27;;;;;;;;;;4840403;29;20098;-79
2022/05/08 13:39:26;;;;;;;4.72;1.38;;;;;;;;;;4839217;29;20036;-83
2022/05/08 13:41:52;;;;;;;4.25;1.55;;;;;;;;;;4851056;29;20101;-82
2022/05/08 13:44:18;;;;;;;4.13;1.50;;;;;;;;;;4841166;29;20037;-78
2022/05/08 13:46:44;;;;;;;3.95;1.48;;;;;;;;;;4833534;29;20033;-82
2022/05/08 13:49:10;;;;;;;3.72;1.25;;;;;;;;;;4832688;29;20052;-81
2022/05/08 13:51:36;;;;;;;4.07;1.30;;;;;;;;;;4834736;29;20041;-82
2022/05/08 13:54:02;;;;;;;4.60;1.20;;;;;;;;;;4844697;29;20483;-81
2022/05/08 13:56:28;;;;;;;3.38;1.20;;;;;;;;;;4838818;29;20037;-79
2022/05/08 13:58:56;;;;;;;2.30;1.10;;;;;;;;;;4838269;29;20120;-79
2022/05/08 14:01:22;;;;;;;3.97;1.27;;;;;;;;;;4856133;29;20399;-79
2022/05/08 14:03:47;;;;;;;2.80;1.17;;;;;;;;;;4855884;29;20030;-78
2022/05/08 14:06:12;;;;;;;2.65;1.20;;;;;;;;;;4859247;29;20133;-78
2022/05/08 14:08:39;;;;;;;4.03;1.30;;;;;;;;;;4854926;29;20121;-80
2022/05/08 14:11:04;;;;;;;7.72;1.70;;;;;;;;;;4839290;29;20025;-82
2022/05/08 14:13:30;;;;;;;4.50;1.48;;;;;;;;;;4853407;29;20053;-79
2022/05/08 14:15:55;;;;;;;4.20;1.40;;;;;;;;;;4854502;29;20397;-81
2022/05/08 14:18:21;;;;;;;3.83;1.33;;;;;;;;;;4835793;29;20067;-82
2022/05/08 14:20:47;;;;;;;4.22;1.33;;;;;;;;;;4842187;29;20058;-83
2022/05/08 14:23:12;;;;;;;3.72;1.15;;;;;;;;;;4853094;29;20024;-82
2022/05/08 14:25:37;;;;;;;3.67;1.13;;;;;;;;;;4841720;29;20412;-83
2022/05/08 14:28:03;;;;;;;3.75;1.20;;;;;;;;;;4852378;29;20030;-81
2022/05/08 14:30:29;;;;;;;3.40;1.13;;;;;;;;;;4854114;29;20050;-79
2022/05/08 14:38:23;;;;;;;4.25;1.63;;;;;;;;;;4855834;29;20391;-85
2022/05/08 14:40:48;;;;;;;4.20;1.48;;;;;;;;;;4853328;29;20025;-82
2022/05/08 14:43:13;;;;;;;5.38;1.60;;;;;;;;;;4841872;29;21666;-79
2022/05/08 14:45:39;;;;;;;3.30;1.40;;;;;;;;;;4835820;29;20449;-80
2022/05/08 14:48:05;;;;;;;3.38;1.40;;;;;;;;;;4853457;29;20052;-80
2022/05/08 14:50:32;;;;;;;3.10;1.55;;;;;;;;;;4840736;29;20250;-77
2022/05/08 14:53:00;;;;;;;2.40;1.00;;;;;;;;;;4853410;29;20025;-79
2022/05/08 14:55:25;;;;;;;4.85;1.30;;;;;;;;;;4855526;29;20044;-78
2022/05/08 14:57:51;;;;;;;3.47;1.25;;;;;;;;;;4852133;29;20076;-83
2022/05/08 15:00:17;;;;;;;5.00;1.42;;;;;;;;;;4838663;29;20120;-79
2022/05/08 15:02:43;;;;;;;3.08;1.10;;;;;;;;;;4851562;29;20100;-83
2022/05/08 15:05:09;;;;;;;5.07;1.50;;;;;;;;;;4853879;29;20509;-80
2022/05/08 15:07:34;;;;;;;2.53;1.20;;;;;;;;;;4843602;29;20124;-81
2022/05/08 15:09:59;;;;;;;5.22;1.25;;;;;;;;;;4852815;29;20160;-81
2022/05/08 15:12:25;;;;;;;2.28;1.20;;;;;;;;;;4853953;29;20037;-78
2022/05/08 15:14:50;;;;;;;3.35;1.27;;;;;;;;;;4853226;29;20613;-80
2022/05/08 15:17:17;;;;;;;4.28;1.20;;;;;;;;;;4852934;29;20081;-80
2022/05/08 15:19:43;;;;;;;4.43;1.33;;;;;;;;;;4842118;29;20111;-80
2022/05/08 15:22:09;;;;;;;2.85;1.15;;;;;;;;;;4855206;29;20021;-82
2022/05/08 15:24:34;;;;;;;2.70;1.27;;;;;;;;;;4836023;29;20395;-79
2022/05/08 15:26:59;;;;;;;5.32;1.17;;;;;;;;;;4852031;29;20025;-82
2022/05/08 15:29:25;;;;;;;4.22;1.20;;;;;;;;;;4837184;29;20512;-80